Time;durP1;ratioP1;P1;durP2;ratioP2;P2;SDS_P1;SDS_P2;PMS_P1;PMS_P2;Temp;Humidity;BMP_temperature;BMP_pressure;BME280_temperature;BME280_humidity;BME280_pressure;Samples;Min_cycle;Max_cycle;Signal;HPM_P1;HPM_P2
2022/09/16 00:00:17;;;;;;;6.15;5.65;;;17.80;99.90;;;;;;5090790;28;20231;-87
2022/09/16 00:02:42;;;;;;;6.43;5.70;;;17.70;99.90;;;;;;5109950;28;20253;-86
2022/09/16 00:05:09;;;;;;;5.30;4.90;;;17.70;99.90;;;;;;5104701;28;20213;-86
2022/09/16 00:07:35;;;;;;;5.95;5.50;;;17.60;99.90;;;;;;5092123;28;20263;-86
2022/09/16 00:10:00;;;;;;;6.63;5.40;;;17.70;99.90;;;;;;5106450;28;20195;-85
2022/09/16 00:12:26;;;;;;;6.60;5.40;;;17.80;99.90;;;;;;5109807;28;20215;-87
2022/09/16 00:14:53;;;;;;;6.40;5.20;;;17.80;99.90;;;;;;5104500;28;20221;-87
2022/09/16 00:17:19;;;;;;;6.10;5.53;;;17.80;99.90;;;;;;5100531;28;20625;-87
2022/09/16 00:19:45;;;;;;;6.18;5.57;;;17.80;99.90;;;;;;5107997;28;20215;-87
2022/09/16 00:22:11;;;;;;;5.78;5.35;;;17.80;99.90;;;;;;5109695;28;20198;-85
2022/09/16 00:24:37;;;;;;;6.15;5.55;;;17.90;99.90;;;;;;5099292;28;20204;-84
2022/09/16 00:27:02;;;;;;;6.05;5.03;;;17.90;99.90;;;;;;5106425;28;20216;-85
2022/09/16 00:29:28;;;;;;;6.43;5.40;;;17.80;99.90;;;;;;5106600;28;20196;-84
2022/09/16 00:31:54;;;;;;;6.03;5.43;;;17.60;99.90;;;;;;5103302;28;20187;-85
2022/09/16 00:34:20;;;;;;;6.22;5.32;;;17.40;99.90;;;;;;5102613;28;20187;-84
2022/09/16 00:36:45;;;;;;;5.65;5.15;;;17.40;99.90;;;;;;5108855;28;20171;-87
2022/09/16 00:39:11;;;;;;;7.47;5.80;;;17.30;99.90;;;;;;5093943;28;20188;-86
2022/09/16 00:41:37;;;;;;;5.57;5.07;;;17.30;99.90;;;;;;5105626;28;20262;-85
2022/09/16 00:44:06;;;;;;;5.07;4.78;;;17.40;99.90;;;;;;5128322;28;20713;-86
2022/09/16 00:46:45;;;;;;;5.82;5.00;;;17.40;99.90;;;;;;5113440;28;20250;-86
2022/09/16 00:49:23;;;;;;;5.10;4.60;;;17.40;99.90;;;;;;5095025;28;20210;-85
2022/09/16 00:51:52;;;;;;;5.60;5.05;;;17.40;99.90;;;;;;5103292;28;20208;-85
2022/09/16 00:54:18;;;;;;;5.40;5.00;;;17.40;99.90;;;;;;5095065;28;20183;-84
2022/09/16 00:56:47;;;;;;;7.93;5.30;;;17.40;99.90;;;;;;5098688;28;20206;-85
2022/09/16 00:59:29;;;;;;;6.10;5.15;;;17.30;99.90;;;;;;5096401;28;20212;-85
2022/09/16 01:01:57;;;;;;;5.57;4.63;;;17.30;99.90;;;;;;5098077;28;20193;-85
2022/09/16 01:04:31;;;;;;;5.13;4.72;;;17.30;99.90;;;;;;5088730;28;20207;-86
2022/09/16 01:06:57;;;;;;;5.30;4.90;;;17.30;99.90;;;;;;5097306;28;20188;-84
2022/09/16 01:09:25;;;;;;;5.55;5.15;;;17.30;99.70;;;;;;5100397;28;20205;-85
2022/09/16 01:11:51;;;;;;;6.25;5.07;;;17.30;99.50;;;;;;5096986;28;20262;-86
2022/09/16 01:17:24;;;;;;;6.68;5.03;;;17.10;99.90;;;;;;5089163;28;20194;-85
2022/09/16 01:20:24;;;;;;;5.13;4.72;;;17.00;99.90;;;;;;5097237;28;20258;-84
2022/09/16 01:23:14;;;;;;;5.90;5.47;;;17.20;99.90;;;;;;5107846;28;20174;-86
2022/09/16 01:25:40;;;;;;;5.80;5.20;;;17.20;99.90;;;;;;5107360;28;20222;-84
2022/09/16 01:28:20;;;;;;;5.78;5.10;;;17.10;99.90;;;;;;5095982;28;20183;-87
2022/09/16 01:30:57;;;;;;;4.72;4.43;;;17.20;99.90;;;;;;5089463;28;20259;-85
2022/09/16 01:33:54;;;;;;;6.20;4.95;;;17.30;99.90;;;;;;5092995;28;20190;-87
2022/09/16 01:36:41;;;;;;;6.38;4.93;;;17.30;99.90;;;;;;5097133;28;20181;-86
2022/09/16 01:39:23;;;;;;;5.90;5.10;;;17.20;99.90;;;;;;5097158;28;20231;-85
2022/09/16 01:42:11;;;;;;;5.20;4.80;;;17.20;99.90;;;;;;5090725;28;20218;-85
2022/09/16 01:45:03;;;;;;;4.88;4.50;;;17.30;99.90;;;;;;5087905;28;20196;-85
2022/09/16 01:47:43;;;;;;;4.97;4.68;;;17.30;99.90;;;;;;5087484;28;20205;-85
2022/09/16 01:50:16;;;;;;;5.10;4.60;;;17.10;99.90;;;;;;5087632;28;20206;-85
2022/09/16 01:53:02;;;;;;;6.93;6.43;;;17.00;99.90;;;;;;5091796;28;20188;-86
2022/09/16 01:55:41;;;;;;;6.13;5.63;;;16.90;99.90;;;;;;5098630;28;20188;-86
2022/09/16 01:58:31;;;;;;;7.25;6.43;;;16.90;99.90;;;;;;5091110;28;20189;-85
2022/09/16 02:01:04;;;;;;;6.20;5.70;;;16.90;99.90;;;;;;5100150;28;20211;-85
2022/09/16 02:03:34;;;;;;;7.55;5.55;;;16.90;99.90;;;;;;5101657;28;20187;-87
2022/09/16 02:06:15;;;;;;;6.35;5.72;;;17.00;99.90;;;;;;5091941;28;20222;-87
2022/09/16 02:08:46;;;;;;;6.65;5.63;;;17.00;99.90;;;;;;5095357;28;20199;-85
2022/09/16 02:11:16;;;;;;;6.40;5.75;;;17.00;99.90;;;;;;5100916;28;20654;-85
2022/09/16 02:13:58;;;;;;;5.70;4.95;;;17.10;99.90;;;;;;5100163;28;20192;-89
2022/09/16 02:16:58;;;;;;;5.95;5.43;;;17.20;99.90;;;;;;5106654;28;20190;-86
2022/09/16 02:19:40;;;;;;;6.85;5.80;;;17.10;99.90;;;;;;5076972;28;20211;-85
2022/09/16 02:22:10;;;;;;;6.47;5.85;;;17.20;99.90;;;;;;5098913;28;20171;-85
2022/09/16 02:24:40;;;;;;;5.38;4.97;;;17.20;99.90;;;;;;5103667;28;20207;-86
2022/09/16 02:27:11;;;;;;;5.70;5.22;;;17.20;99.90;;;;;;5104741;28;20190;-85
2022/09/16 02:29:47;;;;;;;6.13;5.28;;;17.20;99.90;;;;;;5102007;28;20178;-86
2022/09/16 02:32:14;;;;;;;5.40;5.00;;;17.20;99.90;;;;;;5091095;28;20191;-87
2022/09/16 02:34:46;;;;;;;4.90;4.50;;;17.30;99.90;;;;;;5109164;28;20203;-86
2022/09/16 02:37:21;;;;;;;5.55;5.00;;;17.30;99.90;;;;;;5095956;28;20194;-86
2022/09/16 02:39:49;;;;;;;5.72;5.22;;;17.30;99.90;;;;;;5097208;28;20209;-86
2022/09/16 02:42:15;;;;;;;5.90;5.40;;;17.30;99.90;;;;;;5095722;28;20198;-87
2022/09/16 02:44:43;;;;;;;5.80;5.25;;;17.30;99.90;;;;;;5107216;28;20215;-87
2022/09/16 02:47:14;;;;;;;6.15;5.55;;;17.30;99.90;;;;;;5088426;28;20190;-87
2022/09/16 02:50:12;;;;;;;5.53;4.80;;;17.30;99.90;;;;;;5090448;28;20204;-87
2022/09/16 02:53:02;;;;;;;7.20;5.25;;;17.10;99.90;;;;;;5099947;28;20175;-86
2022/09/16 02:55:40;;;;;;;6.55;5.60;;;17.20;99.90;;;;;;5094678;28;20199;-85
2022/09/16 02:58:06;;;;;;;5.88;5.28;;;17.10;99.90;;;;;;5092219;28;20195;-86
2022/09/16 03:00:37;;;;;;;5.97;5.47;;;17.00;99.90;;;;;;5078681;28;20705;-85
2022/09/16 03:03:03;;;;;;;5.93;5.43;;;16.90;99.90;;;;;;5091134;28;20273;-87
2022/09/16 03:05:29;;;;;;;6.72;6.13;;;16.90;99.90;;;;;;5099162;28;20203;-86
2022/09/16 03:07:55;;;;;;;6.28;5.68;;;17.00;99.90;;;;;;5097042;28;20566;-86
2022/09/16 03:10:26;;;;;;;5.88;5.38;;;16.90;99.90;;;;;;5092696;28;20535;-86
2022/09/16 03:13:34;;;;;;;6.32;5.82;;;16.90;99.90;;;;;;5106883;28;20182;-85
2022/09/16 03:16:15;;;;;;;7.13;6.45;;;16.80;99.90;;;;;;5088188;28;20206;-87
2022/09/16 03:18:57;;;;;;;6.40;5.80;;;16.90;99.90;;;;;;5098396;28;20178;-85
2022/09/16 03:21:31;;;;;;;6.45;5.88;;;16.90;99.90;;;;;;5096382;28;20205;-87
2022/09/16 03:24:02;;;;;;;7.18;6.47;;;16.90;99.90;;;;;;5103555;28;20180;-87
2022/09/16 03:26:47;;;;;;;6.53;6.05;;;16.90;99.90;;;;;;5102774;28;20277;-87
2022/09/16 03:29:36;;;;;;;6.55;5.95;;;16.90;99.90;;;;;;5096755;28;20212;-86
2022/09/16 03:32:22;;;;;;;6.57;5.97;;;16.90;99.90;;;;;;5091019;28;20428;-86
2022/09/16 03:34:58;;;;;;;7.18;6.40;;;16.90;99.90;;;;;;5091037;28;20204;-86
2022/09/16 03:37:26;;;;;;;6.45;5.85;;;16.90;99.90;;;;;;5088702;28;20217;-87
2022/09/16 03:39:56;;;;;;;5.90;5.40;;;16.70;99.90;;;;;;5090575;28;20206;-87
2022/09/16 03:42:23;;;;;;;6.20;5.70;;;16.80;99.90;;;;;;5088115;28;20190;-87
2022/09/16 03:44:49;;;;;;;7.07;6.45;;;16.90;99.90;;;;;;5090781;28;20284;-86
2022/09/16 03:47:15;;;;;;;6.93;6.15;;;16.90;99.90;;;;;;5099341;28;20194;-85
2022/09/16 03:49:41;;;;;;;6.78;6.20;;;17.00;99.90;;;;;;5087226;28;20247;-86
2022/09/16 03:52:07;;;;;;;6.25;5.65;;;17.00;99.90;;;;;;5086889;28;20217;-86
2022/09/16 03:54:34;;;;;;;6.85;5.88;;;17.00;99.90;;;;;;5090868;28;20193;-87
2022/09/16 03:57:00;;;;;;;6.07;5.68;;;17.00;99.90;;;;;;5103916;28;20210;-86
2022/09/16 03:59:26;;;;;;;6.43;5.80;;;17.00;99.90;;;;;;5101252;28;20724;-87
2022/09/16 04:01:52;;;;;;;6.30;5.78;;;16.90;99.90;;;;;;5099378;28;20722;-87
2022/09/16 04:04:17;;;;;;;6.47;5.88;;;16.90;99.90;;;;;;5097199;28;20218;-85
2022/09/16 04:06:43;;;;;;;6.57;5.97;;;17.00;99.90;;;;;;5091391;28;20681;-87
2022/09/16 04:09:11;;;;;;;6.50;6.00;;;16.90;99.90;;;;;;5095709;28;20190;-87
2022/09/16 04:11:37;;;;;;;6.15;5.65;;;16.90;99.90;;;;;;5087430;28;20221;-87
2022/09/16 04:14:03;;;;;;;5.97;5.38;;;16.90;99.90;;;;;;5092397;28;20190;-87
2022/09/16 04:16:30;;;;;;;5.78;5.38;;;16.80;99.90;;;;;;5088324;28;20273;-87
2022/09/16 04:18:55;;;;;;;7.82;5.60;;;16.80;99.90;;;;;;5089545;28;20186;-88
2022/09/16 04:21:21;;;;;;;7.10;5.80;;;16.80;99.90;;;;;;5095541;28;20218;-88
2022/09/16 04:23:48;;;;;;;6.95;5.70;;;16.70;99.90;;;;;;5096141;28;20190;-88
2022/09/16 04:26:14;;;;;;;5.53;5.13;;;16.70;99.90;;;;;;5094262;28;20209;-87
2022/09/16 04:28:40;;;;;;;5.88;5.38;;;16.70;99.90;;;;;;5088402;28;20191;-85
2022/09/16 04:31:09;;;;;;;6.80;6.20;;;16.70;99.90;;;;;;5087207;28;20305;-88
2022/09/16 04:33:35;;;;;;;7.35;5.78;;;16.60;99.90;;;;;;5091789;28;20182;-87
2022/09/16 04:36:13;;;;;;;6.90;5.60;;;16.60;99.90;;;;;;5095581;28;20192;-87
2022/09/16 04:38:44;;;;;;;6.13;5.55;;;16.60;99.90;;;;;;5090941;28;20196;-87
2022/09/16 04:41:21;;;;;;;7.13;5.43;;;16.60;99.90;;;;;;5095716;28;20261;-87
2022/09/16 04:43:55;;;;;;;5.50;5.00;;;16.60;99.90;;;;;;5100813;28;20211;-86
2022/09/16 04:46:23;;;;;;;5.82;5.10;;;16.70;99.90;;;;;;5094680;28;20199;-87
2022/09/16 04:48:50;;;;;;;5.25;4.85;;;16.70;99.90;;;;;;5077051;28;20195;-87
2022/09/16 04:51:16;;;;;;;5.50;5.00;;;16.70;99.90;;;;;;5098586;28;20203;-85
2022/09/16 04:53:43;;;;;;;9.02;5.70;;;16.80;99.90;;;;;;5103531;28;20194;-85
2022/09/16 04:56:14;;;;;;;5.97;5.45;;;16.70;99.90;;;;;;5099020;28;20210;-86
2022/09/16 04:58:42;;;;;;;5.63;5.22;;;16.60;99.90;;;;;;5099451;28;20183;-85
2022/09/16 05:01:13;;;;;;;5.88;5.38;;;16.50;99.90;;;;;;5105997;28;20223;-85
2022/09/16 05:03:43;;;;;;;5.80;5.30;;;16.60;99.90;;;;;;5111289;28;20242;-86
2022/09/16 05:06:37;;;;;;;7.63;5.45;;;16.60;99.90;;;;;;5098857;28;20210;-85
2022/09/16 05:09:03;;;;;;;5.82;5.18;;;16.60;99.90;;;;;;5096459;28;20204;-84
2022/09/16 05:11:35;;;;;;;5.72;5.22;;;16.50;99.90;;;;;;5099932;28;20726;-84
2022/09/16 05:14:03;;;;;;;5.43;4.95;;;16.50;99.90;;;;;;5099103;28;20193;-86
2022/09/16 05:16:29;;;;;;;5.60;5.15;;;16.50;99.90;;;;;;5103930;28;20179;-85
2022/09/16 05:18:57;;;;;;;6.20;5.43;;;16.50;99.90;;;;;;5104702;28;20178;-84
2022/09/16 05:21:24;;;;;;;5.30;4.80;;;16.50;99.90;;;;;;5110009;28;20582;-83
2022/09/16 05:23:51;;;;;;;7.25;5.10;;;16.50;99.90;;;;;;5101568;28;20273;-84
2022/09/16 05:26:22;;;;;;;5.60;5.10;;;16.40;99.90;;;;;;5102997;28;20205;-84
2022/09/16 05:28:49;;;;;;;5.03;4.63;;;16.30;99.90;;;;;;5099634;28;20185;-84
2022/09/16 05:31:27;;;;;;;5.75;5.25;;;16.30;99.90;;;;;;5097831;28;20297;-85
2022/09/16 05:34:20;;;;;;;5.40;4.90;;;16.30;99.90;;;;;;5103277;28;20183;-85
2022/09/16 05:36:47;;;;;;;5.32;4.82;;;16.30;99.90;;;;;;5100188;28;20931;-85
2022/09/16 05:39:17;;;;;;;7.00;5.70;;;16.40;99.90;;;;;;5109240;28;20179;-85
2022/09/16 05:41:44;;;;;;;5.40;4.95;;;16.40;99.90;;;;;;5105056;28;20225;-84
2022/09/16 05:44:09;;;;;;;7.28;5.22;;;16.40;99.90;;;;;;5095760;28;20194;-85
2022/09/16 05:46:36;;;;;;;6.07;5.00;;;16.30;99.90;;;;;;5097489;28;20295;-85
2022/09/16 05:49:01;;;;;;;5.68;5.18;;;16.20;99.90;;;;;;5106000;28;20176;-85
2022/09/16 05:51:27;;;;;;;5.65;5.07;;;16.20;99.90;;;;;;5105208;28;20261;-85
2022/09/16 05:53:54;;;;;;;5.90;5.22;;;16.20;99.90;;;;;;5096046;28;20201;-86
2022/09/16 05:56:25;;;;;;;5.63;5.00;;;16.30;99.90;;;;;;5094783;28;20244;-86
2022/09/16 05:58:56;;;;;;;5.63;5.03;;;16.30;99.90;;;;;;5096943;28;20194;-86
2022/09/16 06:01:24;;;;;;;7.90;5.25;;;16.30;99.90;;;;;;5090823;28;20214;-86
2022/09/16 06:03:51;;;;;;;5.28;4.78;;;16.30;99.90;;;;;;5101981;28;20186;-86
2022/09/16 06:06:26;;;;;;;4.97;4.57;;;16.30;99.90;;;;;;5092371;28;20267;-86
2022/09/16 06:08:54;;;;;;;6.60;5.30;;;16.20;99.90;;;;;;5094623;28;20182;-87
2022/09/16 06:11:21;;;;;;;6.55;5.22;;;16.20;99.90;;;;;;5091198;28;20216;-84
2022/09/16 06:13:51;;;;;;;6.32;5.70;;;16.20;99.90;;;;;;5091875;28;20189;-85
2022/09/16 06:16:17;;;;;;;5.70;5.22;;;16.10;99.90;;;;;;5090706;28;20199;-86
2022/09/16 06:18:42;;;;;;;5.85;5.35;;;16.00;99.90;;;;;;5095496;28;20188;-86
2022/09/16 06:21:10;;;;;;;6.05;5.45;;;16.00;99.90;;;;;;5074604;28;20250;-85
2022/09/16 06:23:37;;;;;;;5.65;5.15;;;16.10;99.90;;;;;;5096667;28;20189;-86
2022/09/16 06:26:12;;;;;;;5.93;5.28;;;16.20;99.90;;;;;;5095963;28;20245;-86
2022/09/16 06:28:39;;;;;;;5.43;4.90;;;16.40;99.90;;;;;;5095127;28;20522;-86
2022/09/16 06:31:16;;;;;;;5.20;4.78;;;16.40;99.90;;;;;;5093768;28;20226;-86
2022/09/16 06:33:42;;;;;;;7.07;5.45;;;16.50;99.90;;;;;;5098700;28;20191;-86
2022/09/16 06:36:15;;;;;;;5.40;4.90;;;16.50;99.90;;;;;;5106060;28;20198;-86
2022/09/16 06:38:41;;;;;;;5.85;5.35;;;16.50;99.90;;;;;;5105954;28;20184;-86
2022/09/16 06:41:09;;;;;;;5.40;5.00;;;16.50;99.90;;;;;;5102359;28;20218;-85
2022/09/16 06:43:36;;;;;;;6.10;5.53;;;16.60;99.90;;;;;;5110370;28;20220;-86
2022/09/16 06:46:12;;;;;;;7.00;5.68;;;16.70;99.90;;;;;;5105415;28;20678;-86
2022/09/16 06:48:40;;;;;;;7.07;4.80;;;16.60;99.90;;;;;;5107931;28;20170;-85
2022/09/16 06:51:13;;;;;;;5.72;5.22;;;16.40;99.90;;;;;;5106999;28;20213;-87
2022/09/16 06:53:39;;;;;;;5.95;5.45;;;16.20;99.90;;;;;;5104374;28;20193;-85
2022/09/16 06:56:09;;;;;;;6.30;4.88;;;16.20;99.90;;;;;;5101487;28;20190;-87
2022/09/16 06:58:36;;;;;;;6.72;5.43;;;16.30;99.90;;;;;;5103588;28;20239;-87
2022/09/16 07:01:05;;;;;;;6.03;4.90;;;16.40;99.90;;;;;;5109532;28;20225;-87
2022/09/16 07:03:32;;;;;;;7.68;6.53;;;16.30;99.90;;;;;;5108445;28;20266;-85
2022/09/16 07:06:01;;;;;;;6.65;6.15;;;16.10;99.90;;;;;;5108417;28;20199;-85
2022/09/16 07:08:31;;;;;;;7.10;6.40;;;15.90;99.90;;;;;;5105335;28;20181;-87
2022/09/16 07:11:02;;;;;;;6.93;6.38;;;15.80;99.90;;;;;;5103701;28;20183;-86
2022/09/16 07:13:28;;;;;;;8.30;6.30;;;16.00;99.90;;;;;;5102509;28;20181;-85
2022/09/16 07:15:57;;;;;;;6.95;6.25;;;16.10;99.90;;;;;;5104680;28;20347;-85
2022/09/16 07:18:23;;;;;;;7.33;6.67;;;16.10;99.90;;;;;;5106145;28;20219;-85
2022/09/16 07:20:49;;;;;;;6.97;6.37;;;16.00;99.90;;;;;;5110548;28;20208;-85
2022/09/16 07:23:15;;;;;;;7.83;7.13;;;15.90;99.90;;;;;;5101051;28;20277;-85
2022/09/16 07:25:41;;;;;;;9.80;7.17;;;15.80;99.90;;;;;;5098214;28;20214;-85
2022/09/16 07:28:07;;;;;;;8.93;7.47;;;15.60;99.90;;;;;;5090637;28;20219;-88
2022/09/16 07:30:33;;;;;;;8.63;7.83;;;15.60;99.90;;;;;;5094155;28;20217;-86
2022/09/16 07:32:59;;;;;;;8.03;7.23;;;15.60;99.90;;;;;;5097443;28;20240;-85
2022/09/16 07:35:25;;;;;;;7.27;6.60;;;15.70;99.90;;;;;;5109320;28;20194;-84
2022/09/16 07:37:51;;;;;;;8.43;6.90;;;15.80;99.90;;;;;;5110515;28;20197;-83
2022/09/16 07:40:17;;;;;;;7.07;6.33;;;16.00;99.90;;;;;;5102007;28;20627;-86
2022/09/16 07:42:43;;;;;;;7.20;5.80;;;16.20;99.90;;;;;;5098283;28;20715;-85
2022/09/16 07:45:09;;;;;;;6.20;5.60;;;16.20;99.90;;;;;;5092425;28;20214;-86
2022/09/16 07:47:35;;;;;;;5.47;4.97;;;16.20;99.90;;;;;;5104048;28;20189;-86
2022/09/16 07:50:00;;;;;;;5.20;4.70;;;16.00;99.10;;;;;;5108794;28;20199;-85
2022/09/16 07:52:28;;;;;;;5.40;4.90;;;16.00;97.70;;;;;;5106828;28;20195;-85
2022/09/16 07:54:57;;;;;;;5.47;4.60;;;15.90;99.90;;;;;;5094571;28;20188;-86
2022/09/16 07:57:23;;;;;;;5.47;4.93;;;15.90;99.90;;;;;;5092338;28;20188;-86
2022/09/16 07:59:49;;;;;;;5.30;4.80;;;15.90;99.90;;;;;;5092228;28;20207;-86
2022/09/16 08:02:15;;;;;;;5.90;5.20;;;15.80;99.90;;;;;;5098183;28;20209;-86
2022/09/16 08:04:42;;;;;;;6.83;5.17;;;15.90;99.90;;;;;;5094055;28;20222;-87
2022/09/16 08:07:08;;;;;;;6.00;5.27;;;15.90;99.90;;;;;;5094519;28;20184;-86
2022/09/16 08:09:34;;;;;;;8.07;5.47;;;15.80;99.90;;;;;;5100574;28;20212;-87
2022/09/16 08:12:03;;;;;;;6.70;4.90;;;15.60;99.90;;;;;;5091446;28;20630;-87
2022/09/16 08:14:28;;;;;;;5.57;5.10;;;15.50;99.90;;;;;;5096380;28;20231;-87
2022/09/16 08:16:54;;;;;;;6.20;5.60;;;15.50;99.90;;;;;;5095532;28;20175;-87
2022/09/16 08:19:21;;;;;;;6.33;5.53;;;15.50;99.90;;;;;;5096637;28;20201;-87
2022/09/16 08:21:47;;;;;;;6.50;5.33;;;15.40;99.90;;;;;;5090466;28;20260;-87
2022/09/16 08:24:13;;;;;;;5.40;4.77;;;15.30;99.90;;;;;;5093974;28;20673;-86
2022/09/16 08:26:39;;;;;;;6.30;5.70;;;15.20;99.90;;;;;;5100117;28;20217;-87
2022/09/16 08:29:06;;;;;;;5.80;5.40;;;15.30;99.90;;;;;;5100631;28;20188;-90
2022/09/16 08:31:32;;;;;;;6.60;5.87;;;15.30;99.90;;;;;;5094796;28;20205;-87
2022/09/16 08:33:57;;;;;;;7.17;6.50;;;15.30;99.90;;;;;;5103780;28;20219;-87
2022/09/16 08:36:24;;;;;;;6.40;5.90;;;15.20;99.90;;;;;;5097462;28;20201;-88
2022/09/16 08:38:53;;;;;;;6.87;6.13;;;15.20;99.90;;;;;;5094081;28;20185;-87
2022/09/16 08:41:33;;;;;;;6.77;6.13;;;15.30;99.90;;;;;;5096868;28;20211;-86
2022/09/16 08:44:29;;;;;;;6.33;5.70;;;15.20;99.90;;;;;;5096604;28;20181;-87
2022/09/16 08:47:02;;;;;;;6.70;6.00;;;15.20;99.90;;;;;;5094703;28;20198;-87
2022/09/16 08:49:34;;;;;;;8.53;6.57;;;15.20;99.90;;;;;;5102981;28;20288;-87
2022/09/16 08:52:04;;;;;;;7.10;6.40;;;15.20;99.90;;;;;;5100274;28;20239;-88
2022/09/16 08:54:54;;;;;;;7.33;6.63;;;15.20;99.90;;;;;;5095839;28;20248;-88
2022/09/16 08:57:25;;;;;;;7.67;6.97;;;15.20;99.90;;;;;;5100071;28;20193;-87
2022/09/16 08:59:56;;;;;;;7.70;6.40;;;15.20;99.90;;;;;;5094169;28;20223;-88
2022/09/16 09:02:33;;;;;;;11.47;7.60;;;15.10;99.90;;;;;;5100815;28;20187;-88
2022/09/16 09:05:01;;;;;;;8.13;7.40;;;15.10;99.90;;;;;;5105922;28;20819;-88
2022/09/16 09:08:11;;;;;;;7.50;6.90;;;14.90;99.90;;;;;;5103530;28;20183;-87
2022/09/16 09:10:56;;;;;;;8.83;7.03;;;15.00;99.90;;;;;;5093624;28;20194;-87
2022/09/16 09:13:46;;;;;;;8.33;6.50;;;15.20;99.90;;;;;;5095685;28;20195;-87
2022/09/16 09:16:18;;;;;;;7.20;6.43;;;15.40;99.90;;;;;;5099607;28;20217;-87
2022/09/16 09:18:51;;;;;;;7.37;6.23;;;15.50;99.90;;;;;;5100517;28;20677;-87
2022/09/16 09:22:05;;;;;;;8.33;6.13;;;15.40;99.90;;;;;;5096551;28;20698;-87
2022/09/16 09:25:44;;;;;;;6.20;5.80;;;15.60;99.90;;;;;;5044978;28;20239;-88
2022/09/16 09:28:29;;;;;;;6.07;5.63;;;15.50;99.90;;;;;;4983350;28;20171;-88
2022/09/16 09:31:21;;;;;;;6.60;6.00;;;15.60;99.90;;;;;;5061963;28;20219;-87
2022/09/16 09:34:25;;;;;;;7.67;5.63;;;15.70;99.90;;;;;;5093399;28;20179;-87
2022/09/16 09:37:17;;;;;;;5.77;5.27;;;15.70;99.90;;;;;;5091448;28;20600;-87
2022/09/16 09:40:08;;;;;;;7.17;6.20;;;15.80;99.90;;;;;;5098275;28;20179;-87
2022/09/16 09:42:41;;;;;;;7.27;6.23;;;15.60;99.90;;;;;;5094154;28;20236;-87
2022/09/16 09:45:25;;;;;;;6.97;6.27;;;15.60;99.90;;;;;;5100803;28;20572;-87
2022/09/16 09:48:00;;;;;;;7.27;6.40;;;15.60;99.90;;;;;;5101244;28;20181;-87
2022/09/16 09:50:38;;;;;;;6.07;5.47;;;15.70;99.90;;;;;;5101155;28;20244;-87
2022/09/16 09:53:24;;;;;;;6.53;6.03;;;15.70;99.90;;;;;;5098571;28;20240;-87
2022/09/16 09:55:58;;;;;;;7.30;6.60;;;15.50;99.90;;;;;;5087103;28;20282;-87
2022/09/16 09:58:39;;;;;;;7.17;6.37;;;15.50;99.90;;;;;;5090424;28;20639;-87
2022/09/16 10:01:05;;;;;;;8.43;7.00;;;15.50;99.90;;;;;;5101873;28;20217;-87
2022/09/16 10:03:31;;;;;;;7.33;6.53;;;15.60;99.90;;;;;;5111332;28;20188;-89
2022/09/16 10:05:57;;;;;;;6.27;5.70;;;15.50;99.90;;;;;;5093750;28;20210;-89
2022/09/16 10:08:48;;;;;;;6.50;5.90;;;15.50;99.90;;;;;;5091977;28;20200;-87
2022/09/16 10:11:22;;;;;;;6.97;6.30;;;15.60;99.90;;;;;;5090839;28;20227;-87
2022/09/16 10:13:54;;;;;;;6.50;5.90;;;15.40;99.90;;;;;;5095092;28;20702;-87
2022/09/16 10:16:47;;;;;;;9.43;6.50;;;15.50;99.90;;;;;;5091496;28;20193;-86
2022/09/16 10:19:20;;;;;;;6.90;6.30;;;15.60;99.90;;;;;;5095686;28;20237;-87
2022/09/16 10:22:08;;;;;;;8.47;6.80;;;15.40;99.90;;;;;;5095909;28;20216;-86
2022/09/16 10:24:41;;;;;;;7.27;6.57;;;15.30;99.90;;;;;;5090917;28;20204;-87
2022/09/16 10:27:25;;;;;;;7.33;6.73;;;15.50;99.90;;;;;;5091619;28;20174;-89
2022/09/16 10:30:07;;;;;;;9.73;6.90;;;15.50;99.90;;;;;;5092592;28;20211;-87
2022/09/16 10:32:43;;;;;;;6.67;6.17;;;15.70;99.90;;;;;;5100726;28;20278;-87
2022/09/16 10:35:20;;;;;;;6.90;6.23;;;15.90;99.90;;;;;;5097637;28;20213;-87
2022/09/16 10:37:54;;;;;;;7.10;6.40;;;16.10;99.90;;;;;;5092779;28;20170;-87
2022/09/16 10:40:22;;;;;;;6.63;5.90;;;16.30;99.90;;;;;;5090817;28;20184;-86
2022/09/16 10:42:50;;;;;;;7.90;6.80;;;16.10;99.90;;;;;;5109244;28;20198;-86
2022/09/16 10:45:25;;;;;;;7.40;6.80;;;16.20;99.90;;;;;;5103896;28;20290;-87
2022/09/16 10:48:03;;;;;;;7.90;7.20;;;16.30;99.90;;;;;;5085572;28;20185;-87
2022/09/16 10:50:29;;;;;;;7.77;7.00;;;16.30;99.90;;;;;;5093107;28;20248;-89
2022/09/16 10:52:55;;;;;;;6.47;5.87;;;16.50;99.90;;;;;;5092999;28;20196;-88
2022/09/16 10:55:26;;;;;;;9.37;6.37;;;16.50;99.90;;;;;;5082639;28;20211;-88
2022/09/16 10:58:04;;;;;;;5.80;5.30;;;16.70;99.90;;;;;;5083059;28;20666;-88
2022/09/16 11:00:39;;;;;;;8.57;5.57;;;16.80;98.40;;;;;;5068001;28;20221;-89
2022/09/16 11:03:28;;;;;;;6.63;5.60;;;17.00;94.60;;;;;;5084362;28;20196;-88
2022/09/16 11:06:10;;;;;;;6.07;5.57;;;17.00;95.90;;;;;;5085226;28;20707;-88
2022/09/16 11:09:10;;;;;;;6.53;6.00;;;17.00;96.40;;;;;;5091724;28;20290;-88
2022/09/16 11:11:50;;;;;;;6.30;5.70;;;17.00;96.70;;;;;;5086435;28;20422;-88
2022/09/16 11:14:34;;;;;;;7.57;6.03;;;17.10;96.10;;;;;;5104106;28;20192;-88
2022/09/16 11:17:35;;;;;;;5.90;5.43;;;17.40;94.00;;;;;;5112419;28;20185;-88
2022/09/16 11:20:31;;;;;;;9.80;5.10;;;17.50;95.00;;;;;;5061911;28;20222;-87
2022/09/16 11:23:18;;;;;;;5.93;4.60;;;17.50;94.10;;;;;;5086660;28;20201;-88
2022/09/16 11:26:05;;;;;;;5.27;4.60;;;17.60;90.70;;;;;;5086907;28;20252;-88
2022/09/16 11:28:39;;;;;;;5.63;4.57;;;17.90;90.10;;;;;;5087824;28;20198;-87
2022/09/16 11:31:29;;;;;;;4.38;3.97;;;18.50;89.70;;;;;;5084279;28;20568;-88
2022/09/16 11:34:08;;;;;;;4.07;3.22;;;19.20;81.50;;;;;;5084912;28;20633;-88
2022/09/16 11:36:40;;;;;;;4.15;3.10;;;19.30;67.90;;;;;;5093278;28;20260;-88
2022/09/16 11:39:37;;;;;;;4.63;2.80;;;19.80;62.90;;;;;;5083509;28;20266;-88
2022/09/16 11:42:26;;;;;;;3.20;2.60;;;20.40;59.10;;;;;;5086510;28;20278;-87
2022/09/16 11:45:10;;;;;;;3.40;2.60;;;20.70;58.40;;;;;;5092048;28;20203;-88
2022/09/16 11:48:04;;;;;;;3.20;2.90;;;20.30;59.50;;;;;;5088535;28;20186;-88
2022/09/16 11:50:48;;;;;;;5.60;3.00;;;20.50;58.20;;;;;;5083952;28;20280;-87
2022/09/16 11:53:22;;;;;;;3.50;3.20;;;20.60;58.20;;;;;;5096011;28;20189;-88
2022/09/16 11:56:00;;;;;;;4.65;3.00;;;20.60;62.80;;;;;;5084685;28;20229;-88
2022/09/16 11:58:29;;;;;;;3.58;3.28;;;21.00;57.10;;;;;;5084610;28;20190;-88
2022/09/16 12:00:58;;;;;;;7.30;3.60;;;20.40;62.00;;;;;;5092260;28;20203;-88
2022/09/16 12:03:41;;;;;;;3.53;3.00;;;20.20;67.30;;;;;;5088803;28;20685;-87
2022/09/16 12:06:16;;;;;;;4.57;2.88;;;20.70;58.80;;;;;;5086192;28;20208;-88
2022/09/16 12:08:52;;;;;;;3.13;2.80;;;21.00;62.50;;;;;;5091406;28;20194;-88
2022/09/16 12:11:39;;;;;;;4.90;2.60;;;20.80;58.60;;;;;;5090945;28;20249;-88
2022/09/16 12:14:12;;;;;;;3.08;2.88;;;20.90;58.40;;;;;;5080058;28;20182;-88
2022/09/16 12:16:44;;;;;;;2.88;2.67;;;20.40;59.00;;;;;;5081765;28;20245;-88
2022/09/16 12:19:22;;;;;;;4.68;2.63;;;20.40;61.20;;;;;;5080516;28;20452;-88
2022/09/16 12:22:09;;;;;;;2.95;2.63;;;21.00;54.50;;;;;;5095181;28;20289;-88
2022/09/16 12:24:44;;;;;;;4.63;2.72;;;20.60;54.40;;;;;;5087898;28;20229;-88
2022/09/16 12:27:54;;;;;;;2.53;2.30;;;20.40;56.50;;;;;;5085611;28;20759;-88
2022/09/16 12:30:24;;;;;;;3.55;2.65;;;20.50;59.50;;;;;;5081107;28;20235;-88
2022/09/16 12:33:05;;;;;;;3.00;2.60;;;20.00;58.90;;;;;;5088979;28;20209;-86
2022/09/16 12:35:39;;;;;;;2.83;2.63;;;19.40;62.20;;;;;;5093234;28;20186;-86
2022/09/16 12:38:16;;;;;;;2.97;2.60;;;19.00;63.10;;;;;;5097871;28;20178;-86
2022/09/16 12:40:54;;;;;;;4.32;2.75;;;18.70;59.20;;;;;;5087379;28;20214;-86
2022/09/16 12:43:38;;;;;;;4.05;2.88;;;18.50;61.40;;;;;;5091939;28;20653;-86
2022/09/16 12:46:15;;;;;;;5.65;2.90;;;18.60;60.30;;;;;;5092804;28;20213;-86
2022/09/16 12:49:02;;;;;;;4.18;2.58;;;18.40;64.90;;;;;;5094493;28;21583;-85
2022/09/16 12:51:58;;;;;;;5.18;2.90;;;18.10;63.50;;;;;;5098961;28;20206;-88
2022/09/16 12:54:48;;;;;;;3.40;2.63;;;18.20;62.80;;;;;;5097553;28;20197;-86
2022/09/16 12:57:33;;;;;;;3.45;2.47;;;18.40;63.20;;;;;;5110268;28;20213;-86
2022/09/16 13:00:13;;;;;;;4.72;2.67;;;18.40;65.90;;;;;;5096145;28;20219;-88
2022/09/16 13:02:53;;;;;;;4.30;2.65;;;18.50;63.00;;;;;;5120176;28;20173;-87
2022/09/16 13:05:31;;;;;;;2.95;2.50;;;18.50;64.90;;;;;;5117892;28;20190;-86
2022/09/16 13:08:02;;;;;;;4.80;2.75;;;18.60;67.10;;;;;;5100484;28;20179;-87
2022/09/16 13:10:34;;;;;;;2.70;2.50;;;18.60;65.90;;;;;;5100584;28;20267;-88
2022/09/16 13:13:01;;;;;;;4.72;2.80;;;18.90;63.60;;;;;;5097938;28;20179;-86
2022/09/16 13:15:33;;;;;;;3.28;2.58;;;18.90;65.30;;;;;;5105218;28;20232;-86
2022/09/16 13:18:29;;;;;;;2.55;2.35;;;18.90;62.60;;;;;;5099528;28;20546;-87
2022/09/16 13:21:04;;;;;;;2.97;2.60;;;19.00;63.20;;;;;;5093923;28;20232;-87
2022/09/16 13:23:34;;;;;;;7.13;3.00;;;19.00;65.80;;;;;;5096847;28;20187;-87
2022/09/16 13:26:06;;;;;;;2.60;2.40;;;19.00;61.80;;;;;;5080541;28;20211;-89